Terminal Aerodrome Forecast
Issued by NWS Sioux Falls, SD

Home | Current Version | Previous Version | Graphics & Text | Print | Product List | Glossary On
Versions: 1 2 3 4 5 6 7 8 9 10 11 12 13 14 15 16 17 18 19 20 21 22 23 24 25 26 27 28 29
000
FTUS43 KFSD 281730
TAFSUX
TAF
KSUX 281730Z 2818/2918 24009KT P6SM BKN018
     FM282000 32014G20KT P6SM SCT035
     FM290200 30005KT P6SM SKC
     FM291600 32009KT P6SM SKC=

USA.gov is the U.S. government's official web portal to all federal, state and local government web resources and services.